Terminal Aerodrome Forecast
Issued by NWS

Home | Current Version | Previous Version | Text Only | Print | Product List | Glossary On
Versions: 1 2 3 4 5 6 7 8 9 10 11 12 13 14 15 16 17
000
FTUS45 KRIW 152327
TAFJAC
TAF
KJAC 152327Z 1600/1624 VRB05KT P6SM FEW010 BKN200
     FM160200 21007KT P6SM BKN060
     FM160800 20006KT 4SM -SN SCT012 OVC020
     FM161100 19006KT 2SM -SN SCT002 OVC012
     FM162000 35009KT 5SM -SN SCT015 OVC025
      AMD LTD TO CLD VIS AND WIND=

USA.gov is the U.S. government's official web portal to all federal, state and local government web resources and services.